createdAt,value
2022-09-02T00:04:07.312Z,111.09
2022-09-02T00:09:11.885Z,111.65
2022-09-02T00:14:23.354Z,112.70
2022-09-02T00:19:26.434Z,112.46
2022-09-02T00:24:28.874Z,112.64
2022-09-02T00:29:31.195Z,113.29
2022-09-02T00:34:33.316Z,115.55
2022-09-02T00:39:35.549Z,116.30
2022-09-02T00:44:37.805Z,116.40
2022-09-02T00:49:43.518Z,117.04
2022-09-02T00:54:51.459Z,116.61
2022-09-02T01:00:09.900Z,116.89
2022-09-02T01:05:14.843Z,117.05
2022-09-02T01:10:23.261Z,116.66
2022-09-02T01:15:26.225Z,116.80
2022-09-02T01:20:28.288Z,115.98
2022-09-02T01:25:32.865Z,115.77
2022-09-02T01:30:36.412Z,116.19
2022-09-02T01:35:38.742Z,115.62
2022-09-02T01:40:41.592Z,115.25
2022-09-02T01:45:46.138Z,115.84
2022-09-02T01:50:52.720Z,115.04
2022-09-02T01:55:54.901Z,115.62
2022-09-02T02:00:57.448Z,115.73
2022-09-02T02:06:00.028Z,116.70
2022-09-02T02:11:03.756Z,116.77
2022-09-02T02:16:06.395Z,116.39
2022-09-02T02:21:09.024Z,115.96
2022-09-02T02:26:11.049Z,116.18
2022-09-02T02:31:13.059Z,116.15
2022-09-02T02:36:16.027Z,116.83
2022-09-02T02:41:18.106Z,116.82
2022-09-02T02:46:20.899Z,117.80
2022-09-02T02:51:23.189Z,-5.95
2022-09-02T02:56:25.865Z,-5.54
2022-09-02T03:01:29.066Z,-3.87
2022-09-02T03:06:31.770Z,-3.65
2022-09-02T03:11:34.180Z,-2.75
2022-09-02T03:16:37.044Z,-3.36
2022-09-02T03:21:39.449Z,-3.44
2022-09-02T03:26:44.149Z,-3.51
2022-09-02T03:31:47.544Z,-3.83
2022-09-02T03:36:49.725Z,-1.47
2022-09-02T03:41:53.427Z,-0.45
2022-09-02T03:46:56.284Z,0.08
2022-09-02T03:51:58.523Z,0.44
2022-09-02T03:57:00.592Z,1.75
2022-09-02T04:02:03.574Z,2.72
2022-09-02T04:07:05.905Z,4.05
2022-09-02T04:12:08.259Z,3.22
2022-09-02T04:17:10.433Z,1.77
2022-09-02T04:22:12.570Z,2.92
2022-09-02T04:27:14.715Z,4.03
2022-09-02T04:32:20.201Z,4.93
2022-09-02T04:37:23.117Z,4.85
2022-09-02T04:42:26.761Z,4.77
2022-09-02T04:47:30.164Z,3.82
2022-09-02T04:52:32.630Z,3.87
2022-09-02T04:57:36.545Z,3.20
2022-09-02T05:02:41.005Z,2.09
2022-09-02T05:07:44.044Z,1.33
2022-09-02T05:12:46.279Z,2.09
2022-09-02T05:17:48.932Z,0.83
2022-09-02T05:22:51.395Z,-0.27
2022-09-02T05:27:53.551Z,-2.08
2022-09-02T05:32:56.005Z,-3.57
2022-09-02T05:38:00.910Z,-3.26
2022-09-02T05:43:05.369Z,-3.00
2022-09-02T05:48:27.754Z,-3.81
2022-09-02T05:53:31.861Z,-4.40
2022-09-02T05:58:34.725Z,118.78
2022-09-02T06:03:37.209Z,118.50
2022-09-02T06:08:43.021Z,-5.76
2022-09-02T06:13:45.502Z,118.91
2022-09-02T06:18:48.829Z,118.17
2022-09-02T06:23:50.950Z,117.50
2022-09-02T06:28:53.072Z,118.55
2022-09-02T06:33:56.609Z,117.28
2022-09-02T06:39:00.954Z,118.01
2022-09-02T06:44:07.718Z,115.95
2022-09-02T06:49:16.352Z,114.77
2022-09-02T06:54:23.221Z,116.26
2022-09-02T06:59:31.835Z,114.10
2022-09-02T07:04:54.379Z,114.89
2022-09-02T07:09:59.316Z,111.57
2022-09-02T07:15:02.872Z,112.87
2022-09-02T07:20:12.708Z,111.19
2022-09-02T07:25:28.864Z,111.96
2022-09-02T07:30:31.786Z,108.72
2022-09-02T07:35:42.272Z,111.89
2022-09-02T07:40:47.037Z,110.63
2022-09-02T07:45:52.522Z,109.07
2022-09-02T07:50:55.329Z,107.81
2022-09-02T07:55:59.811Z,107.14
2022-09-02T08:01:03.416Z,107.33
2022-09-02T08:06:07.241Z,103.84
2022-09-02T08:11:09.561Z,102.12
2022-09-02T08:16:12.675Z,99.87
2022-09-02T08:21:14.777Z,95.88
2022-09-02T08:26:18.030Z,96.06
2022-09-02T08:31:22.253Z,94.85
2022-09-02T08:36:24.837Z,94.02
2022-09-02T08:41:32.637Z,91.18
2022-09-02T08:46:36.250Z,90.31
2022-09-02T08:51:53.841Z,88.08
2022-09-02T08:56:58.152Z,90.50
2022-09-02T09:02:01.018Z,89.34
2022-09-02T09:07:43.419Z,88.87
2022-09-02T09:13:15.645Z,88.18
2022-09-02T09:18:21.181Z,88.88
2022-09-02T09:23:34.381Z,87.29
2022-09-02T09:28:48.353Z,85.98
2022-09-02T09:34:04.665Z,86.16
2022-09-02T09:39:25.380Z,85.72
2022-09-02T09:44:46.404Z,83.49
2022-09-02T09:50:12.718Z,83.72
2022-09-02T09:55:24.705Z,82.20
2022-09-02T10:00:38.243Z,82.40
2022-09-02T10:05:40.656Z,81.12
2022-09-02T10:10:56.928Z,80.99
2022-09-02T10:16:30.203Z,79.57
2022-09-02T10:21:48.506Z,79.95
2022-09-02T10:26:54.241Z,79.01
2022-09-02T10:31:58.982Z,79.69
2022-09-02T10:37:15.740Z,79.72
2022-09-02T10:42:31.516Z,78.58
2022-09-02T10:47:39.058Z,77.59
2022-09-02T10:53:10.611Z,77.45
2022-09-02T10:58:30.905Z,75.99
2022-09-02T11:03:46.615Z,77.06
2022-09-02T11:09:01.884Z,77.33
2022-09-02T11:14:22.186Z,79.46
2022-09-02T11:19:52.104Z,81.70
2022-09-02T11:25:03.957Z,76.25
2022-09-02T11:30:14.697Z,71.55
2022-09-02T11:35:26.763Z,69.54
2022-09-02T11:40:36.717Z,71.08
2022-09-02T11:45:47.662Z,71.23
2022-09-02T11:51:04.569Z,73.25
2022-09-02T11:56:15.924Z,72.47
2022-09-02T12:01:56.589Z,70.10
2022-09-02T12:07:09.662Z,69.42
2022-09-02T12:12:41.511Z,69.55
2022-09-02T12:17:50.016Z,66.53
2022-09-02T12:22:52.351Z,68.10
2022-09-02T12:28:27.158Z,69.55
2022-09-02T12:33:34.817Z,68.05
2022-09-02T12:38:39.298Z,67.19
2022-09-02T12:43:47.466Z,68.86
2022-09-02T12:49:27.075Z,67.84
2022-09-02T12:54:43.839Z,68.27
2022-09-02T12:59:47.747Z,67.96
2022-09-02T13:04:59.362Z,67.38
2022-09-02T13:10:15.127Z,67.72
2022-09-02T13:15:25.816Z,62.73
2022-09-02T13:20:46.866Z,64.50
2022-09-02T13:26:07.832Z,65.18
2022-09-02T13:31:19.487Z,65.40
2022-09-02T13:36:35.620Z,65.28
2022-09-02T13:41:37.853Z,64.13
2022-09-02T13:46:45.311Z,66.71
2022-09-02T13:51:48.028Z,65.01
2022-09-02T13:56:50.094Z,66.05
2022-09-02T14:01:52.233Z,64.64
2022-09-02T14:06:55.041Z,64.34
2022-09-02T14:11:58.570Z,64.66
2022-09-02T14:17:25.956Z,64.82
2022-09-02T14:22:29.468Z,66.33
2022-09-02T14:27:31.536Z,64.47
2022-09-02T14:32:33.601Z,63.62
2022-09-02T14:37:48.692Z,63.71
2022-09-02T14:42:57.207Z,64.58
2022-09-02T14:48:03.577Z,63.87
2022-09-02T14:53:08.672Z,64.92
2022-09-02T14:58:10.895Z,62.76
2022-09-02T15:03:16.209Z,63.45
2022-09-02T15:08:18.501Z,63.90
2022-09-02T15:13:26.826Z,64.18
2022-09-02T15:18:30.112Z,62.87
2022-09-02T15:23:34.832Z,64.73
2022-09-02T15:28:38.598Z,64.28
2022-09-02T15:33:42.068Z,65.66
2022-09-02T15:38:44.458Z,66.56
2022-09-02T15:43:48.378Z,66.85
2022-09-02T15:48:50.844Z,67.07
2022-09-02T15:54:20.249Z,67.13
2022-09-02T15:59:22.410Z,66.69
2022-09-02T16:04:25.145Z,67.16
2022-09-02T16:09:27.548Z,67.49
2022-09-02T16:14:29.661Z,67.87
2022-09-02T16:19:31.825Z,66.78
2022-09-02T16:24:34.106Z,66.91
2022-09-02T16:29:37.297Z,67.36
2022-09-02T16:34:39.352Z,67.75
2022-09-02T16:39:42.350Z,68.32
2022-09-02T16:44:45.029Z,68.86
2022-09-02T16:49:47.112Z,70.22
2022-09-02T16:54:49.764Z,71.10
2022-09-02T16:59:52.237Z,71.73
2022-09-02T17:04:54.428Z,72.84
2022-09-02T17:09:56.631Z,73.41
2022-09-02T17:14:58.708Z,73.32
2022-09-02T17:20:00.870Z,73.99
2022-09-02T17:25:03.209Z,74.86
2022-09-02T17:30:06.567Z,79.54
2022-09-02T17:35:10.288Z,82.87
2022-09-02T17:40:32.252Z,84.39
2022-09-02T17:45:35.343Z,85.38
2022-09-02T17:50:44.132Z,87.15
2022-09-02T17:55:48.448Z,88.15
2022-09-02T18:00:53.813Z,89.36
2022-09-02T18:06:07.384Z,89.17
2022-09-02T18:11:09.583Z,90.77
2022-09-02T18:16:32.449Z,86.84
2022-09-02T18:22:13.224Z,86.24
2022-09-02T18:28:06.804Z,88.94
2022-09-02T18:33:30.050Z,89.03
2022-09-02T18:38:58.556Z,90.28
2022-09-02T18:44:10.921Z,90.54
2022-09-02T18:49:14.557Z,93.27
2022-09-02T18:54:23.765Z,94.66
2022-09-02T18:59:42.249Z,95.45
2022-09-02T19:04:44.489Z,96.67
2022-09-02T19:09:47.536Z,94.54
2022-09-02T19:14:52.503Z,94.40
2022-09-02T19:19:55.189Z,94.52
2022-09-02T19:25:07.240Z,97.13
2022-09-02T19:30:21.218Z,98.71
2022-09-02T19:35:26.822Z,100.26
2022-09-02T19:40:33.298Z,101.24
2022-09-02T19:45:40.822Z,102.32
2022-09-02T19:50:45.522Z,101.54
2022-09-02T19:55:48.183Z,100.92
2022-09-02T20:00:50.691Z,103.02
2022-09-02T20:05:53.313Z,104.12
2022-09-02T20:10:57.522Z,102.79
2022-09-02T20:16:00.302Z,105.27
2022-09-02T20:21:02.613Z,104.24
2022-09-02T20:26:23.991Z,102.68
2022-09-02T20:32:01.655Z,102.48
2022-09-02T20:37:19.421Z,101.82
2022-09-02T20:42:37.508Z,102.46
2022-09-02T20:47:39.440Z,102.65
2022-09-02T20:53:00.004Z,104.25
2022-09-02T20:58:24.452Z,103.73
2022-09-02T21:03:34.829Z,105.12
2022-09-02T21:08:57.116Z,100.20
2022-09-02T21:14:08.403Z,102.32
2022-09-02T21:19:20.817Z,101.37
2022-09-02T21:24:55.488Z,102.23
2022-09-02T21:30:03.310Z,104.91
2022-09-02T21:35:12.798Z,105.13
2022-09-02T21:40:20.127Z,102.51
2022-09-02T21:45:27.351Z,102.67
2022-09-02T21:50:38.330Z,102.67
2022-09-02T21:55:52.986Z,102.98
2022-09-02T22:01:06.755Z,104.09
2022-09-02T22:06:27.423Z,106.46
2022-09-02T22:11:49.017Z,106.70
2022-09-02T22:17:05.581Z,108.16
2022-09-02T22:22:10.828Z,109.84
2022-09-02T22:27:18.121Z,109.64
2022-09-02T22:32:23.804Z,110.62
2022-09-02T22:37:34.372Z,110.14
2022-09-02T22:42:38.929Z,112.26
2022-09-02T22:48:05.252Z,113.30
2022-09-02T22:53:07.728Z,113.77
2022-09-02T22:58:47.710Z,113.51
2022-09-02T23:04:11.096Z,111.29
2022-09-02T23:09:14.969Z,112.32
2022-09-02T23:14:38.876Z,109.30
2022-09-02T23:20:02.240Z,107.38
2022-09-02T23:25:14.057Z,106.50
2022-09-02T23:30:16.042Z,104.64
2022-09-02T23:36:05.995Z,107.80
2022-09-02T23:41:10.085Z,108.17
2022-09-02T23:46:26.406Z,109.98
2022-09-02T23:51:57.644Z,110.46
2022-09-02T23:57:36.645Z,111.22
